Time;durP1;ratioP1;P1;durP2;ratioP2;P2;SDS_P1;SDS_P2;PMS_P1;PMS_P2;Temp;Humidity;BMP_temperature;BMP_pressure;BME280_temperature;BME280_humidity;BME280_pressure;Samples;Min_cycle;Max_cycle;Signal;HPM_P1;HPM_P2
2022/10/07 00:00:54;;;;;;;10.53;3.97;;;9.70;99.90;;;;;;5039996;28;20242;-81
2022/10/07 00:03:26;;;;;;;13.07;4.13;;;9.80;99.90;;;;;;5040133;28;20211;-82
2022/10/07 00:06:05;;;;;;;9.10;3.63;;;9.80;99.90;;;;;;5029316;28;20203;-81
2022/10/07 00:08:37;;;;;;;16.33;4.20;;;9.70;99.90;;;;;;5045190;28;20215;-82
2022/10/07 00:11:16;;;;;;;10.83;4.00;;;9.70;99.90;;;;;;5025336;28;20478;-80
2022/10/07 00:13:45;;;;;;;11.53;4.13;;;9.70;99.90;;;;;;5043995;28;20205;-80
2022/10/07 00:16:24;;;;;;;11.83;4.17;;;9.80;99.90;;;;;;5026210;28;20240;-81
2022/10/07 00:18:56;;;;;;;11.80;4.23;;;9.80;99.90;;;;;;5046574;28;20232;-81
2022/10/07 00:21:25;;;;;;;14.80;5.03;;;9.80;99.90;;;;;;5043028;28;20882;-81
2022/10/07 00:23:52;;;;;;;9.50;4.37;;;10.60;99.90;;;;;;5042028;28;20205;-81
2022/10/07 00:26:22;;;;;;;15.77;4.53;;;9.50;99.90;;;;;;5041349;28;20234;-81
2022/10/07 00:28:49;;;;;;;13.70;4.37;;;9.80;99.90;;;;;;5049517;28;20209;-81
2022/10/07 00:31:19;;;;;;;11.17;4.20;;;10.20;99.90;;;;;;5019567;28;20227;-81
2022/10/07 00:33:50;;;;;;;12.43;3.33;;;9.70;99.90;;;;;;5035994;28;20214;-82
2022/10/07 00:36:22;;;;;;;10.37;4.17;;;9.70;99.90;;;;;;5021858;28;20208;-81
2022/10/07 00:38:51;;;;;;;10.23;3.60;;;9.60;99.90;;;;;;5046501;28;20235;-80
2022/10/07 00:41:26;;;;;;;11.13;3.70;;;9.70;99.90;;;;;;5043361;28;20209;-82
2022/10/07 00:43:56;;;;;;;14.47;4.00;;;9.40;99.90;;;;;;5043447;28;20212;-82
2022/10/07 00:46:38;;;;;;;11.83;4.63;;;10.00;99.90;;;;;;5037229;28;20288;-81
2022/10/07 00:49:11;;;;;;;12.03;4.03;;;10.90;99.90;;;;;;5041480;28;20721;-80
2022/10/07 00:51:40;;;;;;;12.07;4.67;;;9.60;99.90;;;;;;5021185;28;20644;-82
2022/10/07 00:54:13;;;;;;;10.27;4.27;;;9.50;99.90;;;;;;5019453;28;20204;-80
2022/10/07 00:56:41;;;;;;;10.73;4.20;;;9.40;99.90;;;;;;5029552;28;20245;-81
2022/10/07 00:59:09;;;;;;;10.83;4.27;;;9.70;99.90;;;;;;5041511;28;20234;-81
2022/10/07 01:01:40;;;;;;;11.63;4.23;;;9.50;99.90;;;;;;5027319;28;20227;-82
2022/10/07 01:04:12;;;;;;;13.53;4.30;;;9.50;99.90;;;;;;5045067;28;20514;-79
2022/10/07 01:06:41;;;;;;;10.03;4.13;;;9.70;99.90;;;;;;5040849;28;20254;-82
2022/10/07 01:09:10;;;;;;;16.17;4.20;;;9.60;99.90;;;;;;5043734;28;20209;-80
2022/10/07 01:12:03;;;;;;;12.77;4.17;;;9.40;99.90;;;;;;5038663;28;20214;-80
2022/10/07 01:14:48;;;;;;;11.80;4.07;;;9.60;99.90;;;;;;5054963;28;20207;-80
2022/10/07 01:17:35;;;;;;;12.97;5.17;;;9.50;99.90;;;;;;5036342;28;20283;-80
2022/10/07 01:20:31;;;;;;;12.80;4.40;;;10.40;99.90;;;;;;5042548;28;20210;-83
2022/10/07 01:23:20;;;;;;;11.33;4.23;;;9.60;99.90;;;;;;5048632;28;20225;-81
2022/10/07 01:26:24;;;;;;;13.50;4.27;;;9.50;99.90;;;;;;5051806;28;20230;-80
2022/10/07 01:29:07;;;;;;;14.00;4.00;;;9.60;99.90;;;;;;5046954;28;20222;-82
2022/10/07 01:31:46;;;;;;;15.50;5.10;;;9.50;99.90;;;;;;5042400;28;20231;-83
2022/10/07 01:34:15;;;;;;;11.17;4.37;;;9.40;99.90;;;;;;5029783;28;20207;-81
2022/10/07 01:36:49;;;;;;;12.03;4.80;;;10.40;99.90;;;;;;5032563;28;20327;-80
2022/10/07 01:39:20;;;;;;;17.40;5.30;;;10.80;99.90;;;;;;5028212;28;20242;-82
2022/10/07 01:41:49;;;;;;;13.37;4.40;;;9.10;99.90;;;;;;5029435;28;20216;-80
2022/10/07 01:44:19;;;;;;;15.40;4.83;;;9.40;99.90;;;;;;5030016;28;20245;-81
2022/10/07 01:46:46;;;;;;;15.17;4.83;;;9.50;99.90;;;;;;5052667;28;20235;-82
2022/10/07 01:49:13;;;;;;;14.83;3.83;;;8.80;99.90;;;;;;5049229;28;20221;-80
2022/10/07 01:51:41;;;;;;;7.40;4.50;;;9.30;99.90;;;;;;5048951;28;20204;-81
2022/10/07 01:54:37;;;;;;;16.70;4.57;;;9.30;99.90;;;;;;5028051;28;20232;-81
2022/10/07 01:57:17;;;;;;;14.37;5.33;;;9.50;99.90;;;;;;5030894;28;20548;-80
2022/10/07 02:00:02;;;;;;;13.67;4.73;;;9.50;99.90;;;;;;5044984;28;20230;-81
2022/10/07 02:02:38;;;;;;;11.23;4.87;;;11.10;99.90;;;;;;5043342;28;20235;-82
2022/10/07 02:05:20;;;;;;;16.43;5.47;;;9.40;99.90;;;;;;5045342;28;20299;-80
2022/10/07 02:08:06;;;;;;;16.77;6.13;;;9.60;99.90;;;;;;5046852;28;20638;-81
2022/10/07 02:10:36;;;;;;;21.47;7.23;;;9.40;99.90;;;;;;5026143;28;20218;-80
2022/10/07 02:13:11;;;;;;;19.17;6.90;;;9.30;99.90;;;;;;5040839;28;21025;-81
2022/10/07 02:15:58;;;;;;;14.53;5.83;;;9.40;99.90;;;;;;5045990;28;20241;-82
2022/10/07 02:18:27;;;;;;;15.13;5.53;;;9.40;99.90;;;;;;5046828;28;20242;-80
2022/10/07 02:20:54;;;;;;;20.30;5.93;;;10.00;99.90;;;;;;5034632;28;20215;-81
2022/10/07 02:23:22;;;;;;;17.80;6.60;;;10.00;99.90;;;;;;5047898;28;20302;-81
2022/10/07 02:25:55;;;;;;;13.47;5.17;;;9.40;99.90;;;;;;5053960;28;20209;-80
2022/10/07 02:28:24;;;;;;;15.67;4.77;;;9.50;99.90;;;;;;5034846;28;21111;-81
2022/10/07 02:30:54;;;;;;;14.83;5.57;;;9.50;99.90;;;;;;5049183;28;20233;-80
2022/10/07 02:33:26;;;;;;;14.37;5.97;;;9.50;99.90;;;;;;5045172;28;20242;-81
2022/10/07 02:35:57;;;;;;;17.17;5.70;;;9.30;99.90;;;;;;5044297;28;20208;-80
2022/10/07 02:38:25;;;;;;;15.30;5.63;;;9.30;99.90;;;;;;5046066;28;20234;-80
2022/10/07 02:40:52;;;;;;;16.23;6.17;;;10.20;99.90;;;;;;5043164;28;20242;-80
2022/10/07 02:43:48;;;;;;;15.10;6.27;;;10.10;99.90;;;;;;5048921;28;20209;-81
2022/10/07 02:46:29;;;;;;;16.90;6.00;;;9.30;99.90;;;;;;5040342;28;20259;-79
2022/10/07 02:49:04;;;;;;;16.33;5.87;;;9.30;99.90;;;;;;5044549;28;20590;-80
2022/10/07 02:51:47;;;;;;;19.50;6.40;;;9.30;99.90;;;;;;5035598;28;20305;-81
2022/10/07 02:54:19;;;;;;;12.93;5.83;;;11.10;99.90;;;;;;5050128;28;20676;-81
2022/10/07 02:56:48;;;;;;;14.30;6.17;;;8.80;99.90;;;;;;5044973;28;20286;-81
2022/10/07 02:59:24;;;;;;;19.63;6.50;;;8.50;99.90;;;;;;5054015;28;20238;-81
2022/10/07 03:01:54;;;;;;;14.73;7.67;;;9.00;99.90;;;;;;5047721;28;20318;-82
2022/10/07 03:04:22;;;;;;;12.87;5.90;;;9.20;99.90;;;;;;5040497;28;20207;-81
2022/10/07 03:06:50;;;;;;;18.03;7.87;;;10.10;99.90;;;;;;5048073;28;20313;-80
2022/10/07 03:09:17;;;;;;;13.53;5.97;;;8.80;99.90;;;;;;5045004;28;21048;-81
2022/10/07 03:11:49;;;;;;;20.73;6.97;;;9.40;99.90;;;;;;5044486;28;20203;-81
2022/10/07 03:14:17;;;;;;;14.73;6.10;;;9.60;99.90;;;;;;5038394;28;20289;-80
2022/10/07 03:16:44;;;;;;;12.37;6.07;;;9.70;99.90;;;;;;5062902;28;20242;-81
2022/10/07 03:19:11;;;;;;;21.60;7.33;;;8.80;99.90;;;;;;5071462;28;20314;-80
2022/10/07 03:21:39;;;;;;;17.80;6.30;;;9.00;99.90;;;;;;5071260;28;20449;-79
2022/10/07 03:24:06;;;;;;;15.73;6.87;;;8.80;99.90;;;;;;5072212;28;20207;-79
2022/10/07 03:26:33;;;;;;;19.57;6.13;;;8.40;99.90;;;;;;5068848;28;20192;-81
2022/10/07 03:29:01;;;;;;;17.87;7.90;;;8.70;99.90;;;;;;5073523;28;20220;-81
2022/10/07 03:31:28;;;;;;;18.17;7.17;;;8.80;99.90;;;;;;5071096;28;20226;-81
2022/10/07 03:33:56;;;;;;;23.60;8.23;;;9.10;99.90;;;;;;5039858;28;20211;-81
2022/10/07 03:36:24;;;;;;;19.47;8.10;;;8.90;99.90;;;;;;5033276;28;20340;-81
2022/10/07 03:38:50;;;;;;;15.00;7.17;;;9.70;99.90;;;;;;5049864;28;20241;-81
2022/10/07 03:41:18;;;;;;;21.20;7.30;;;8.10;99.90;;;;;;5041687;28;20603;-80
2022/10/07 03:43:46;;;;;;;22.83;6.97;;;8.60;99.90;;;;;;5043919;28;20298;-81
2022/10/07 03:46:13;;;;;;;18.13;8.30;;;10.50;99.90;;;;;;5035203;28;20277;-80
2022/10/07 03:48:40;;;;;;;15.17;7.80;;;8.70;99.90;;;;;;5053289;28;20228;-81
2022/10/07 03:51:07;;;;;;;21.70;7.43;;;9.00;99.90;;;;;;5048291;28;20366;-81
2022/10/07 03:53:37;;;;;;;21.10;7.33;;;9.60;99.90;;;;;;5054269;28;20263;-82
2022/10/07 03:56:06;;;;;;;17.37;6.80;;;10.40;99.90;;;;;;5046062;28;20760;-80
2022/10/07 03:58:33;;;;;;;25.10;7.80;;;10.20;99.90;;;;;;5035096;28;20227;-80
2022/10/07 04:01:07;;;;;;;20.87;6.97;;;8.90;99.90;;;;;;5045593;28;20222;-80
2022/10/07 04:03:34;;;;;;;19.87;7.63;;;8.80;99.90;;;;;;5045468;28;20670;-80
2022/10/07 04:06:02;;;;;;;18.07;7.57;;;8.60;99.90;;;;;;5052012;28;20676;-80
2022/10/07 04:08:32;;;;;;;22.10;7.33;;;8.90;99.90;;;;;;5051210;28;20306;-80
2022/10/07 04:11:00;;;;;;;21.23;7.50;;;8.70;99.90;;;;;;5039113;28;20889;-80
2022/10/07 04:13:27;;;;;;;17.73;7.57;;;8.70;99.90;;;;;;5030491;28;20703;-81
2022/10/07 04:15:54;;;;;;;20.90;7.60;;;8.50;99.90;;;;;;5055805;28;20239;-82
2022/10/07 04:18:23;;;;;;;20.53;7.57;;;8.60;99.90;;;;;;5047987;28;20214;-81
2022/10/07 04:20:49;;;;;;;18.07;7.93;;;8.80;99.90;;;;;;5031732;28;20226;-79
2022/10/07 04:23:16;;;;;;;26.47;7.80;;;8.50;99.90;;;;;;5054069;28;20229;-81
2022/10/07 04:25:45;;;;;;;20.13;8.03;;;9.10;99.90;;;;;;5049475;28;20826;-80
2022/10/07 04:28:18;;;;;;;19.30;8.33;;;9.40;99.90;;;;;;5053510;28;20312;-78
2022/10/07 04:30:50;;;;;;;31.60;7.93;;;8.90;99.90;;;;;;5047504;28;20284;-80
2022/10/07 04:33:18;;;;;;;19.13;7.27;;;10.30;99.90;;;;;;5028161;28;20241;-81
2022/10/07 04:35:45;;;;;;;19.97;7.33;;;8.90;99.90;;;;;;5049250;28;20215;-80
2022/10/07 04:38:14;;;;;;;23.07;8.57;;;9.70;99.90;;;;;;5047563;28;20568;-79
2022/10/07 04:40:48;;;;;;;23.17;7.63;;;8.90;99.90;;;;;;5030513;28;20241;-79
2022/10/07 04:43:22;;;;;;;22.37;8.57;;;9.00;99.90;;;;;;5033207;28;20296;-79
2022/10/07 04:45:58;;;;;;;17.20;7.13;;;8.90;99.90;;;;;;5058633;28;20211;-80
2022/10/07 04:48:26;;;;;;;25.30;7.47;;;9.70;99.90;;;;;;5050088;28;20683;-79
2022/10/07 04:50:53;;;;;;;22.20;6.53;;;8.50;99.90;;;;;;5047393;28;20191;-80
2022/10/07 04:53:20;;;;;;;20.80;7.80;;;9.60;99.90;;;;;;5039247;28;20212;-78
2022/10/07 04:55:50;;;;;;;18.33;7.07;;;9.40;99.90;;;;;;5041300;28;20232;-80
2022/10/07 04:58:18;;;;;;;18.20;6.40;;;9.80;99.90;;;;;;5035396;28;20293;-80
2022/10/07 05:00:47;;;;;;;23.47;6.73;;;9.00;99.90;;;;;;5023703;28;20227;-79
2022/10/07 05:03:16;;;;;;;22.70;6.70;;;8.90;99.90;;;;;;5023026;28;20212;-81
2022/10/07 05:05:44;;;;;;;18.77;6.60;;;8.30;99.90;;;;;;5039728;28;20293;-79
2022/10/07 05:08:15;;;;;;;18.50;6.37;;;8.50;99.90;;;;;;5036651;28;20217;-79
2022/10/07 05:10:42;;;;;;;19.90;6.50;;;10.20;99.90;;;;;;5034534;28;20218;-79
2022/10/07 05:13:11;;;;;;;13.17;6.23;;;8.90;99.90;;;;;;5040030;28;20322;-80
2022/10/07 05:15:49;;;;;;;22.63;6.53;;;9.90;99.90;;;;;;5043926;28;20649;-79
2022/10/07 05:18:18;;;;;;;23.10;7.83;;;8.90;99.90;;;;;;5036147;28;20209;-80
2022/10/07 05:20:46;;;;;;;20.00;6.23;;;8.90;99.90;;;;;;5032810;28;20375;-80
2022/10/07 05:23:18;;;;;;;19.20;7.07;;;9.60;99.90;;;;;;5034992;28;20216;-81
2022/10/07 05:26:00;;;;;;;20.20;6.40;;;9.70;99.90;;;;;;5042654;28;20206;-82
2022/10/07 05:28:27;;;;;;;14.30;6.00;;;10.30;99.90;;;;;;5043294;28;20204;-82
2022/10/07 05:31:10;;;;;;;19.53;6.50;;;8.50;99.90;;;;;;5042043;28;20225;-80
2022/10/07 05:33:37;;;;;;;22.73;7.00;;;8.80;99.90;;;;;;5021968;28;20448;-79
2022/10/07 05:36:05;;;;;;;19.10;6.57;;;8.90;99.90;;;;;;5032275;28;20216;-80
2022/10/07 05:38:32;;;;;;;23.83;6.40;;;8.90;99.90;;;;;;5036466;28;20205;-79
2022/10/07 05:41:01;;;;;;;26.03;7.67;;;9.40;99.90;;;;;;5036973;28;20324;-78
2022/10/07 05:43:30;;;;;;;20.53;6.13;;;9.50;99.90;;;;;;5040674;28;20212;-79
2022/10/07 05:46:02;;;;;;;26.90;7.20;;;8.60;99.90;;;;;;5020078;28;20319;-80
2022/10/07 05:48:30;;;;;;;18.43;6.37;;;8.90;99.90;;;;;;5034573;28;20532;-78
2022/10/07 05:51:06;;;;;;;19.33;6.37;;;9.60;99.90;;;;;;5035353;28;20300;-79
2022/10/07 05:53:33;;;;;;;17.67;6.17;;;9.00;99.90;;;;;;5031817;28;20308;-78
2022/10/07 05:56:08;;;;;;;21.60;6.23;;;9.00;99.90;;;;;;5044980;28;20204;-80
2022/10/07 05:58:35;;;;;;;24.03;6.03;;;9.00;99.90;;;;;;5041868;28;20251;-79
2022/10/07 06:01:06;;;;;;;24.40;6.67;;;9.10;99.90;;;;;;5022376;28;20664;-80
2022/10/07 06:03:40;;;;;;;14.93;5.73;;;9.10;99.90;;;;;;5039484;28;20208;-79
2022/10/07 06:06:07;;;;;;;19.37;6.47;;;9.10;99.90;;;;;;5040144;28;20212;-81
2022/10/07 06:08:37;;;;;;;20.80;5.47;;;8.70;99.90;;;;;;5034290;28;20570;-80
2022/10/07 06:13:52;;;;;;;16.10;5.27;;;8.80;99.90;;;;;;5038752;28;20634;-78
2022/10/07 06:16:20;;;;;;;27.90;5.17;;;9.60;99.90;;;;;;5037786;28;20319;-80
2022/10/07 06:18:49;;;;;;;14.03;4.60;;;9.50;99.90;;;;;;5018091;28;20213;-80
2022/10/07 06:21:16;;;;;;;16.47;3.80;;;9.40;99.90;;;;;;5046538;28;20554;-80
2022/10/07 06:23:43;;;;;;;27.33;5.70;;;9.90;99.90;;;;;;5049990;28;20204;-80
2022/10/07 06:26:12;;;;;;;10.03;4.23;;;11.00;99.90;;;;;;5051135;28;20236;-80
2022/10/07 06:28:40;;;;;;;17.70;4.93;;;10.00;99.90;;;;;;5044829;28;20294;-81
2022/10/07 06:31:10;;;;;;;18.47;4.40;;;9.90;99.90;;;;;;5023073;28;20231;-78
2022/10/07 06:33:37;;;;;;;17.77;4.80;;;10.20;99.90;;;;;;5038010;28;20204;-80
2022/10/07 06:36:06;;;;;;;18.63;4.27;;;11.10;99.90;;;;;;5024296;28;20404;-79
2022/10/07 06:38:33;;;;;;;17.60;4.40;;;10.80;99.90;;;;;;5035040;28;20673;-79
2022/10/07 06:41:01;;;;;;;19.60;4.23;;;11.40;99.90;;;;;;5034242;28;20320;-78
2022/10/07 06:43:30;;;;;;;14.50;3.33;;;11.00;99.90;;;;;;5034239;28;20310;-79
2022/10/07 06:46:00;;;;;;;17.17;3.50;;;11.00;99.90;;;;;;5036004;28;20236;-79
2022/10/07 06:48:32;;;;;;;16.10;4.23;;;11.00;99.90;;;;;;5035463;28;20229;-80
2022/10/07 06:51:02;;;;;;;13.23;4.43;;;11.80;99.90;;;;;;5035984;28;20644;-80
2022/10/07 06:53:29;;;;;;;13.20;3.17;;;12.30;99.90;;;;;;5034240;28;20283;-79
2022/10/07 06:56:01;;;;;;;11.20;3.63;;;12.70;99.90;;;;;;5037800;28;20562;-80
2022/10/07 06:58:28;;;;;;;14.33;3.23;;;11.50;99.90;;;;;;5034405;28;20240;-80
2022/10/07 07:00:58;;;;;;;9.23;3.17;;;13.00;99.90;;;;;;5025414;28;20287;-80
2022/10/07 07:03:25;;;;;;;15.50;4.43;;;11.90;99.90;;;;;;5041119;28;20233;-79
2022/10/07 07:05:53;;;;;;;14.00;3.73;;;11.70;99.90;;;;;;5039224;28;20300;-79
2022/10/07 07:08:23;;;;;;;14.23;4.27;;;12.00;99.90;;;;;;5033793;28;20305;-79
2022/10/07 07:10:50;;;;;;;17.77;4.13;;;;;;;;;;5021031;28;20276;-81
2022/10/07 07:13:17;;;;;;;15.33;3.70;;;12.20;99.90;;;;;;5021998;28;20370;-78
2022/10/07 07:15:57;;;;;;;14.67;3.90;;;12.30;99.90;;;;;;5048168;28;20216;-79
2022/10/07 07:18:25;;;;;;;14.60;4.77;;;12.30;99.90;;;;;;5040088;28;20214;-80
2022/10/07 07:20:52;;;;;;;15.17;3.43;;;12.40;99.90;;;;;;5026967;28;20684;-80
2022/10/07 07:23:19;;;;;;;12.87;3.30;;;12.50;99.90;;;;;;5041396;28;20249;-79
2022/10/07 07:25:46;;;;;;;12.87;3.13;;;12.60;99.90;;;;;;5029111;28;20227;-79
2022/10/07 07:28:14;;;;;;;14.40;3.37;;;12.60;99.90;;;;;;5038654;28;20250;-79
2022/10/07 07:30:41;;;;;;;14.87;3.40;;;12.80;99.90;;;;;;5045270;28;20205;-78
2022/10/07 07:33:09;;;;;;;15.70;3.43;;;12.80;99.90;;;;;;5042207;28;20241;-81
2022/10/07 07:35:40;;;;;;;12.47;3.50;;;12.80;99.90;;;;;;5042502;28;20666;-79
2022/10/07 07:38:07;;;;;;;16.73;3.83;;;12.90;99.90;;;;;;5036215;28;20212;-77
2022/10/07 07:40:38;;;;;;;12.30;3.97;;;12.90;99.90;;;;;;5044024;28;20264;-77
2022/10/07 07:43:07;;;;;;;12.27;3.00;;;13.10;99.90;;;;;;5042928;28;20301;-77
2022/10/07 07:45:35;;;;;;;17.80;4.40;;;13.20;99.90;;;;;;5035203;28;20237;-77
2022/10/07 07:48:03;;;;;;;12.73;2.77;;;13.30;99.90;;;;;;5034075;28;20317;-80
2022/10/07 07:50:30;;;;;;;10.47;2.50;;;13.30;99.90;;;;;;5035132;28;20206;-79
2022/10/07 07:52:59;;;;;;;11.97;3.17;;;13.40;99.90;;;;;;5033335;28;20284;-80
2022/10/07 07:55:25;;;;;;;15.30;2.87;;;14.10;99.90;;;;;;5047596;28;20205;-80
2022/10/07 07:57:56;;;;;;;15.80;3.47;;;13.70;99.90;;;;;;5053590;28;21013;-79
2022/10/07 08:00:23;;;;;;;15.37;3.13;;;13.60;99.90;;;;;;5045419;28;20236;-83
2022/10/07 08:02:52;;;;;;;13.93;3.20;;;13.70;99.90;;;;;;5038224;28;20212;-80
2022/10/07 08:05:20;;;;;;;11.60;3.03;;;13.70;99.90;;;;;;5045563;28;20652;-80
2022/10/07 08:07:50;;;;;;;10.40;3.20;;;13.80;99.90;;;;;;5060015;28;20283;-79
2022/10/07 08:10:17;;;;;;;16.30;3.13;;;13.80;99.90;;;;;;5042996;28;20608;-79
2022/10/07 08:12:44;;;;;;;11.47;2.77;;;14.00;99.90;;;;;;5052915;28;20217;-82
2022/10/07 08:15:11;;;;;;;10.50;2.60;;;13.90;99.90;;;;;;5046962;28;20211;-80
2022/10/07 08:17:37;;;;;;;10.73;2.73;;;13.90;99.90;;;;;;5047727;28;20358;-79
2022/10/07 08:20:05;;;;;;;15.73;3.37;;;14.00;99.90;;;;;;5033697;28;20260;-79
2022/10/07 08:22:32;;;;;;;11.80;3.00;;;14.10;99.90;;;;;;5050416;28;20211;-78
2022/10/07 08:25:06;;;;;;;10.00;2.80;;;14.10;99.90;;;;;;5028302;28;20716;-82
2022/10/07 08:27:33;;;;;;;14.83;3.13;;;14.20;99.90;;;;;;5049038;28;20224;-79
2022/10/07 08:29:59;;;;;;;10.30;3.50;;;14.20;99.90;;;;;;5044728;28;20212;-81
2022/10/07 08:32:26;;;;;;;17.00;3.57;;;14.20;99.90;;;;;;5029305;28;20557;-79
2022/10/07 08:34:53;;;;;;;13.13;4.13;;;14.20;99.90;;;;;;5052742;28;20548;-81
2022/10/07 08:37:37;;;;;;;14.23;3.73;;;14.10;99.90;;;;;;5047797;28;20233;-80
2022/10/07 08:40:05;;;;;;;10.17;3.47;;;14.30;99.90;;;;;;5026104;28;20225;-80
2022/10/07 08:42:37;;;;;;;11.33;3.47;;;14.20;99.90;;;;;;5047343;28;20225;-79
2022/10/07 08:45:09;;;;;;;14.23;3.47;;;14.20;99.90;;;;;;5048341;28;20259;-79
2022/10/07 08:47:42;;;;;;;14.13;4.10;;;14.20;99.90;;;;;;5027277;28;20213;-79
2022/10/07 08:50:24;;;;;;;12.47;3.60;;;14.20;99.90;;;;;;5047584;28;20564;-82
2022/10/07 08:53:07;;;;;;;13.20;3.90;;;14.30;99.90;;;;;;5046906;28;20683;-79
2022/10/07 08:55:42;;;;;;;17.67;3.63;;;14.50;99.90;;;;;;5041220;28;20641;-79
2022/10/07 08:58:21;;;;;;;10.90;3.27;;;14.30;99.90;;;;;;5044046;28;20619;-78
2022/10/07 09:01:23;;;;;;;13.10;3.87;;;14.40;99.90;;;;;;5047285;28;20354;-81
2022/10/07 09:03:52;;;;;;;16.20;3.40;;;14.50;99.90;;;;;;5041609;28;20220;-80
2022/10/07 09:07:01;;;;;;;9.33;3.13;;;14.80;99.90;;;;;;5039678;28;20301;-78
2022/10/07 09:09:47;;;;;;;15.63;3.93;;;15.00;99.90;;;;;;5008164;28;20235;-79
2022/10/07 09:12:21;;;;;;;11.37;3.47;;;15.60;99.90;;;;;;5047055;28;20205;-82
2022/10/07 09:14:54;;;;;;;16.77;3.80;;;16.00;99.90;;;;;;5027725;28;20261;-81
2022/10/07 09:17:32;;;;;;;12.90;3.03;;;15.90;99.90;;;;;;5030028;28;20221;-81
2022/10/07 09:20:25;;;;;;;15.73;3.58;;;16.00;99.90;;;;;;5047043;28;20348;-82
2022/10/07 09:23:01;;;;;;;10.68;3.35;;;16.90;99.90;;;;;;5046931;28;20193;-80
2022/10/07 09:25:30;;;;;;;14.60;4.10;;;16.40;99.90;;;;;;5048558;28;20228;-80
2022/10/07 09:27:57;;;;;;;13.85;3.10;;;16.50;99.90;;;;;;5047756;28;20311;-82
2022/10/07 09:30:31;;;;;;;12.48;3.05;;;16.50;99.90;;;;;;5045637;28;20284;-79
2022/10/07 09:32:58;;;;;;;12.80;2.95;;;16.60;99.90;;;;;;5045582;28;20726;-80
2022/10/07 09:35:28;;;;;;;8.73;3.08;;;16.70;99.90;;;;;;5028908;28;20267;-80
2022/10/07 09:37:59;;;;;;;11.82;3.00;;;16.80;99.90;;;;;;5023839;28;20665;-81
2022/10/07 09:40:26;;;;;;;16.13;3.58;;;16.80;99.90;;;;;;5033062;28;20629;-79
2022/10/07 09:42:53;;;;;;;14.02;3.78;;;16.80;99.90;;;;;;5035237;28;20283;-80
2022/10/07 09:45:32;;;;;;;13.32;3.00;;;16.90;99.90;;;;;;5039020;28;20635;-79
2022/10/07 09:48:06;;;;;;;11.93;3.47;;;17.80;99.90;;;;;;5037791;28;20796;-78
2022/10/07 09:50:45;;;;;;;11.65;2.67;;;17.00;99.90;;;;;;5044200;28;20228;-82
2022/10/07 09:53:32;;;;;;;9.48;3.10;;;16.90;99.90;;;;;;5037094;28;20523;-79
2022/10/07 09:55:59;;;;;;;11.07;2.95;;;16.80;99.90;;;;;;5018324;28;20228;-78
2022/10/07 09:58:32;;;;;;;12.70;2.80;;;16.70;99.90;;;;;;5039680;28;20205;-79
2022/10/07 10:01:09;;;;;;;12.52;2.92;;;16.50;99.90;;;;;;5039595;28;20243;-79
2022/10/07 10:03:37;;;;;;;15.52;3.13;;;;;;;;;;5035656;28;20529;-80
2022/10/07 10:06:07;;;;;;;13.63;3.35;;;16.50;99.90;;;;;;5034221;28;20650;-79
2022/10/07 10:08:38;;;;;;;13.10;2.85;;;16.50;99.90;;;;;;5014210;28;20216;-82
2022/10/07 10:11:18;;;;;;;8.75;2.60;;;16.60;99.90;;;;;;5034524;28;20289;-83
2022/10/07 10:13:47;;;;;;;12.20;3.10;;;16.70;99.90;;;;;;5017250;28;20760;-80
2022/10/07 10:16:34;;;;;;;16.38;3.13;;;16.80;99.90;;;;;;5018847;28;20256;-80
2022/10/07 10:19:22;;;;;;;14.35;3.13;;;16.90;99.90;;;;;;5020766;28;20209;-80
2022/10/07 10:21:56;;;;;;;8.48;2.67;;;17.00;99.90;;;;;;5029935;28;20785;-80
2022/10/07 10:27:25;;;;;;;10.32;2.33;;;16.90;99.90;;;;;;5040492;28;20192;-81
2022/10/07 10:30:00;;;;;;;12.07;2.90;;;16.80;99.90;;;;;;5022460;28;20284;-80
2022/10/07 10:32:42;;;;;;;11.65;3.00;;;16.90;99.90;;;;;;5036037;28;20348;-80
2022/10/07 10:35:21;;;;;;;10.32;2.60;;;16.90;99.90;;;;;;5028561;28;20686;-81
2022/10/07 10:38:00;;;;;;;14.02;3.08;;;16.90;99.90;;;;;;5031568;28;20751;-80
2022/10/07 10:40:48;;;;;;;12.68;2.63;;;17.00;99.90;;;;;;5036481;28;20723;-81
2022/10/07 10:43:44;;;;;;;14.57;3.22;;;17.00;99.90;;;;;;5017611;28;20642;-80
2022/10/07 10:46:25;;;;;;;14.38;2.63;;;17.00;99.90;;;;;;5035851;28;20697;-82
2022/10/07 10:49:09;;;;;;;12.60;2.50;;;17.10;99.90;;;;;;5024578;28;20268;-80
2022/10/07 10:51:52;;;;;;;12.52;2.88;;;17.10;99.90;;;;;;5024850;28;20205;-79
2022/10/07 10:55:05;;;;;;;10.05;2.40;;;17.20;99.90;;;;;;5036530;28;20287;-80
2022/10/07 10:57:46;;;;;;;12.07;2.60;;;17.30;99.90;;;;;;4976538;28;20221;-79
2022/10/07 11:00:23;;;;;;;12.50;2.85;;;17.40;99.90;;;;;;5032344;28;20233;-78
2022/10/07 11:02:58;;;;;;;9.52;2.60;;;17.60;99.90;;;;;;5035141;28;20725;-79
2022/10/07 11:05:34;;;;;;;11.90;2.40;;;17.60;99.90;;;;;;5034279;28;20716;-79
2022/10/07 11:08:10;;;;;;;12.10;2.53;;;17.70;99.90;;;;;;5041666;28;20214;-80
2022/10/07 11:10:50;;;;;;;11.75;2.40;;;18.00;99.90;;;;;;5043066;28;20205;-79
2022/10/07 11:13:54;;;;;;;12.48;2.10;;;18.10;99.90;;;;;;5042057;28;20209;-80
2022/10/07 11:17:00;;;;;;;9.55;2.40;;;18.30;99.90;;;;;;5044302;28;20248;-80
2022/10/07 11:19:36;;;;;;;11.57;3.08;;;18.40;99.90;;;;;;5043118;28;20721;-79
2022/10/07 11:22:10;;;;;;;10.50;3.10;;;18.50;99.90;;;;;;5039892;28;20225;-81
2022/10/07 11:24:45;;;;;;;9.68;2.08;;;18.60;99.90;;;;;;5039405;28;20203;-78
2022/10/07 11:27:23;;;;;;;9.93;2.70;;;18.70;99.90;;;;;;5043778;28;20641;-79
2022/10/07 11:30:17;;;;;;;11.55;3.13;;;18.80;99.90;;;;;;5044009;28;20290;-79
2022/10/07 11:33:16;;;;;;;8.77;2.20;;;18.90;99.90;;;;;;5045651;28;20233;-81
2022/10/07 11:35:58;;;;;;;11.05;2.70;;;19.00;99.90;;;;;;5051482;28;20764;-78
2022/10/07 11:38:32;;;;;;;10.27;2.25;;;19.00;99.90;;;;;;5055698;28;20260;-81
2022/10/07 11:41:09;;;;;;;8.18;2.72;;;19.20;99.90;;;;;;5048675;28;20231;-80
2022/10/07 11:43:46;;;;;;;9.00;2.22;;;19.10;99.90;;;;;;5033354;28;20212;-79
2022/10/07 11:46:16;;;;;;;8.30;1.98;;;19.10;99.90;;;;;;5028146;28;20546;-80
2022/10/07 11:49:07;;;;;;;9.98;2.45;;;19.10;99.90;;;;;;5047795;28;21207;-78
2022/10/07 11:51:45;;;;;;;12.05;2.53;;;19.10;99.90;;;;;;5045833;28;20233;-80
2022/10/07 11:54:16;;;;;;;7.53;1.92;;;19.20;99.90;;;;;;5041211;28;20610;-78
2022/10/07 11:56:51;;;;;;;6.70;1.95;;;19.30;99.90;;;;;;5045943;28;20205;-79
2022/10/07 11:59:37;;;;;;;11.73;2.30;;;19.40;99.90;;;;;;5048597;28;20209;-79
2022/10/07 12:02:26;;;;;;;13.25;2.72;;;19.40;99.90;;;;;;5040453;28;20240;-78
2022/10/07 12:04:56;;;;;;;12.00;2.15;;;19.50;99.90;;;;;;5047251;28;20201;-80
2022/10/07 12:07:33;;;;;;;9.85;1.98;;;19.40;99.90;;;;;;5033095;28;20594;-80
2022/10/07 12:10:03;;;;;;;8.30;2.35;;;19.40;99.90;;;;;;5023729;28;20226;-78
2022/10/07 12:12:52;;;;;;;7.50;2.03;;;19.40;99.90;;;;;;5030762;28;20311;-80
2022/10/07 12:15:34;;;;;;;10.80;2.13;;;19.40;99.90;;;;;;5050295;28;20299;-79
2022/10/07 12:18:04;;;;;;;9.52;2.70;;;19.40;99.90;;;;;;5045390;28;20252;-81
2022/10/07 12:20:50;;;;;;;8.48;2.33;;;19.30;99.90;;;;;;5038260;28;20250;-78
2022/10/07 12:23:20;;;;;;;9.82;2.08;;;19.30;99.90;;;;;;5022600;28;20271;-80
2022/10/07 12:25:53;;;;;;;9.00;2.33;;;19.40;99.90;;;;;;5041735;28;20201;-79
2022/10/07 12:28:42;;;;;;;9.70;2.03;;;19.60;99.90;;;;;;5027634;28;20656;-81
2022/10/07 12:31:14;;;;;;;11.25;2.17;;;19.80;99.90;;;;;;5039698;28;20232;-79
2022/10/07 12:33:44;;;;;;;7.47;1.98;;;20.10;99.90;;;;;;5039969;28;20653;-79
2022/10/07 12:36:21;;;;;;;9.38;1.90;;;20.30;99.90;;;;;;5037341;28;20210;-80
2022/10/07 12:38:59;;;;;;;8.98;2.35;;;20.50;99.90;;;;;;5048586;28;20212;-77
2022/10/07 12:41:37;;;;;;;8.60;2.00;;;20.50;99.90;;;;;;5060941;28;20213;-77
2022/10/07 12:44:18;;;;;;;5.18;1.63;;;20.50;99.90;;;;;;5047576;28;20202;-79
2022/10/07 12:47:07;;;;;;;8.45;2.20;;;20.60;99.90;;;;;;5037029;28;20228;-78
2022/10/07 12:49:49;;;;;;;10.00;1.90;;;20.70;99.90;;;;;;5035538;28;20244;-76
2022/10/07 12:52:26;;;;;;;8.70;1.80;;;20.80;99.90;;;;;;5034592;28;20276;-77
2022/10/07 12:54:57;;;;;;;8.40;2.03;;;20.70;99.90;;;;;;5018723;28;20206;-76
2022/10/07 12:57:34;;;;;;;12.38;2.03;;;20.50;99.90;;;;;;5035182;28;20241;-78
2022/10/07 13:00:16;;;;;;;8.52;2.10;;;20.40;99.90;;;;;;5039359;28;20255;-77
2022/10/07 13:03:14;;;;;;;7.32;1.80;;;20.30;99.90;;;;;;5034508;28;20639;-76
2022/10/07 13:05:42;;;;;;;11.15;2.35;;;20.30;99.90;;;;;;5041048;28;20760;-79
2022/10/07 13:08:34;;;;;;;13.93;2.25;;;20.30;99.90;;;;;;5034678;28;20298;-78
2022/10/07 13:11:33;;;;;;;8.65;2.00;;;20.20;99.90;;;;;;5036814;28;20220;-76
2022/10/07 13:14:41;;;;;;;7.82;2.10;;;20.20;99.90;;;;;;5036916;28;20296;-78
2022/10/07 13:17:23;;;;;;;6.57;1.80;;;20.20;99.90;;;;;;4966623;28;20747;-78
2022/10/07 13:20:26;;;;;;;9.25;2.30;;;20.30;99.90;;;;;;5034089;28;20309;-77
2022/10/07 13:22:55;;;;;;;9.73;2.05;;;20.40;99.90;;;;;;5036228;28;20637;-80